FIN152 KATL-NZAA
Flight info
| Callsign | FIN152 |
|---|---|
| Flight time | N/A |
| Altitude | 34000 |
| Route | POUNC2 GRGIA DCT MHZ DCT LFK J27 SAT DCT RUDLO DCT NABAS DCT VESKI DCT MEDES DCT TAGMO DCT 21N120W/N0500F360 16N130W 05N140W/N0492F380 03S150W 11S160W/N0486F400 20S170W 29S180W/N0488F410 DCT MOMTA DCT IBESO |
| Aircraft | A359/H-SDE2E3GHIJ3J4J5LM1ORWXY/LB1D1 |
Departure
| Time | N/A |
|---|---|
| Airport | Hartsfield Jackson Atlanta International Airport (KATL) |
Arrival
| Time | 2026-05-05 19:27 |
|---|---|
| Airport | Auckland International Airport (NZAA) |
| Time | Latitude | Longitude | Altitude | Speed | Heading |
|---|---|---|---|---|---|
| 2026-05-05 18:49 | -36.85726 | 178.99040 | 34462 ft | 492 kts | 190° |
| 2026-05-05 18:49 | -36.89126 | 178.98458 | 34461 ft | 492 kts | 190° |
| 2026-05-05 18:50 | -36.95780 | 178.96658 | 34473 ft | 487 kts | 204° |
| 2026-05-05 18:50 | -37.01665 | 178.92713 | 34464 ft | 481 kts | 224° |
| 2026-05-05 18:51 | -37.03843 | 178.89572 | 34464 ft | 476 kts | 239° |
| 2026-05-05 18:51 | -37.05241 | 178.85857 | 34461 ft | 472 kts | 254° |
| 2026-05-05 18:51 | -37.05774 | 178.81820 | 34461 ft | 471 kts | 270° |
| 2026-05-05 18:51 | -37.05402 | 178.77748 | 34463 ft | 471 kts | 285° |
| 2026-05-05 18:52 | -37.04155 | 178.73966 | 34457 ft | 472 kts | 300° |
| 2026-05-05 18:52 | -37.02144 | 178.70714 | 34471 ft | 474 kts | 312° |
| 2026-05-05 18:52 | -37.00074 | 178.67514 | 34456 ft | 474 kts | 301° |
| 2026-05-05 18:52 | -36.98571 | 178.63857 | 34461 ft | 472 kts | 290° |
| 2026-05-05 18:53 | -36.96855 | 178.55945 | 34462 ft | 473 kts | 280° |
| 2026-05-05 18:53 | -36.95930 | 178.47852 | 34458 ft | 473 kts | 276° |
| 2026-05-05 18:54 | -36.95252 | 178.39669 | 34459 ft | 473 kts | 275° |
| 2026-05-05 18:54 | -36.94648 | 178.31489 | 34454 ft | 473 kts | 275° |
| 2026-05-05 18:55 | -36.94061 | 178.23304 | 34454 ft | 473 kts | 275° |
| 2026-05-05 18:55 | -36.93474 | 178.15101 | 34453 ft | 472 kts | 275° |
| 2026-05-05 18:56 | -36.92891 | 178.06971 | 34454 ft | 472 kts | 275° |
| 2026-05-05 18:56 | -36.92296 | 177.98788 | 34451 ft | 472 kts | 275° |
| 2026-05-05 18:57 | -36.91695 | 177.90596 | 34451 ft | 472 kts | 275° |
| 2026-05-05 18:57 | -36.91092 | 177.82435 | 34447 ft | 471 kts | 275° |
| 2026-05-05 18:58 | -36.90531 | 177.74273 | 34450 ft | 472 kts | 271° |
| 2026-05-05 18:58 | -36.91037 | 177.66180 | 34450 ft | 471 kts | 261° |
| 2026-05-05 18:59 | -36.92075 | 177.58083 | 34451 ft | 471 kts | 261° |
| 2026-05-05 18:59 | -36.93121 | 177.49994 | 34446 ft | 471 kts | 261° |
| 2026-05-05 19:00 | -36.94163 | 177.41889 | 34447 ft | 471 kts | 261° |
| 2026-05-05 19:00 | -36.95190 | 177.33852 | 34446 ft | 471 kts | 261° |
| 2026-05-05 19:01 | -36.96219 | 177.25760 | 34442 ft | 471 kts | 261° |
| 2026-05-05 19:01 | -36.97244 | 177.17660 | 34443 ft | 471 kts | 261° |
| 2026-05-05 19:02 | -36.98263 | 177.09558 | 34440 ft | 471 kts | 261° |
| 2026-05-05 19:02 | -36.99266 | 177.01520 | 34440 ft | 471 kts | 261° |
| 2026-05-05 19:03 | -37.00276 | 176.93410 | 34442 ft | 471 kts | 261° |
| 2026-05-05 19:03 | -37.01277 | 176.85316 | 34439 ft | 470 kts | 261° |
| 2026-05-05 19:04 | -37.02272 | 176.77221 | 34441 ft | 470 kts | 261° |
| 2026-05-05 19:04 | -37.03263 | 176.69123 | 34439 ft | 470 kts | 261° |
| 2026-05-05 19:05 | -37.04245 | 176.61044 | 34358 ft | 468 kts | 261° |
| 2026-05-05 19:05 | -37.04730 | 176.57033 | 33648 ft | 467 kts | 261° |
| 2026-05-05 19:05 | -37.05212 | 176.53040 | 32662 ft | 473 kts | 261° |
| 2026-05-05 19:06 | -37.05704 | 176.48948 | 31714 ft | 477 kts | 261° |
| 2026-05-05 19:06 | -37.06198 | 176.44830 | 30808 ft | 480 kts | 261° |
| 2026-05-05 19:06 | -37.06695 | 176.40677 | 29842 ft | 483 kts | 261° |
| 2026-05-05 19:06 | -37.07193 | 176.36507 | 28930 ft | 484 kts | 261° |
| 2026-05-05 19:07 | -37.07687 | 176.32356 | 28268 ft | 480 kts | 262° |
| 2026-05-05 19:07 | -37.08165 | 176.28328 | 27705 ft | 456 kts | 262° |
| 2026-05-05 19:07 | -37.08627 | 176.24414 | 27179 ft | 452 kts | 262° |
| 2026-05-05 19:07 | -37.09084 | 176.20532 | 26627 ft | 449 kts | 262° |
| 2026-05-05 19:08 | -37.09537 | 176.16675 | 26085 ft | 447 kts | 262° |
| 2026-05-05 19:08 | -37.09986 | 176.12839 | 25551 ft | 444 kts | 263° |
| 2026-05-05 19:08 | -37.10432 | 176.09020 | 25015 ft | 441 kts | 263° |
| 2026-05-05 19:08 | -37.10874 | 176.05226 | 24489 ft | 438 kts | 263° |
| 2026-05-05 19:09 | -37.11306 | 176.01504 | 23960 ft | 435 kts | 263° |
| 2026-05-05 19:09 | -37.11737 | 175.97764 | 23372 ft | 432 kts | 263° |
| 2026-05-05 19:09 | -37.12165 | 175.94057 | 22846 ft | 427 kts | 263° |
| 2026-05-05 19:09 | -37.12587 | 175.90394 | 22332 ft | 422 kts | 263° |
| 2026-05-05 19:10 | -37.13004 | 175.86763 | 21817 ft | 418 kts | 263° |
| 2026-05-05 19:10 | -37.13414 | 175.83179 | 21306 ft | 414 kts | 263° |
| 2026-05-05 19:10 | -37.13821 | 175.79617 | 20784 ft | 410 kts | 263° |
| 2026-05-05 19:10 | -37.14222 | 175.76100 | 20277 ft | 406 kts | 263° |
| 2026-05-05 19:11 | -37.14619 | 175.72607 | 19766 ft | 404 kts | 263° |
| 2026-05-05 19:11 | -37.15008 | 175.69172 | 19253 ft | 401 kts | 263° |
| 2026-05-05 19:11 | -37.15398 | 175.65722 | 18734 ft | 399 kts | 264° |
| 2026-05-05 19:11 | -37.15783 | 175.62288 | 18167 ft | 396 kts | 263° |
| 2026-05-05 19:12 | -37.16165 | 175.58875 | 17638 ft | 393 kts | 263° |
| 2026-05-05 19:12 | -37.16543 | 175.55495 | 17117 ft | 390 kts | 263° |
| 2026-05-05 19:12 | -37.16916 | 175.52173 | 16584 ft | 387 kts | 263° |
| 2026-05-05 19:12 | -37.17288 | 175.48811 | 16064 ft | 383 kts | 263° |
| 2026-05-05 19:13 | -37.17651 | 175.45504 | 15538 ft | 382 kts | 263° |
| 2026-05-05 19:13 | -37.18014 | 175.42247 | 15024 ft | 380 kts | 263° |
| 2026-05-05 19:13 | -37.18378 | 175.38973 | 14487 ft | 378 kts | 263° |
| 2026-05-05 19:13 | -37.18739 | 175.35705 | 13930 ft | 377 kts | 263° |
| 2026-05-05 19:14 | -37.19098 | 175.32460 | 13382 ft | 374 kts | 263° |
| 2026-05-05 19:14 | -37.19452 | 175.29250 | 12863 ft | 371 kts | 263° |
| 2026-05-05 19:14 | -37.19886 | 175.26073 | 12373 ft | 368 kts | 259° |
| 2026-05-05 19:14 | -37.20398 | 175.22929 | 11836 ft | 366 kts | 259° |
| 2026-05-05 19:15 | -37.20901 | 175.19818 | 11294 ft | 364 kts | 260° |
| 2026-05-05 19:15 | -37.21388 | 175.16737 | 11026 ft | 354 kts | 260° |
| 2026-05-05 19:15 | -37.21850 | 175.13775 | 10915 ft | 339 kts | 260° |
| 2026-05-05 19:15 | -37.22291 | 175.10921 | 10804 ft | 325 kts | 261° |
| 2026-05-05 19:16 | -37.22712 | 175.08184 | 10687 ft | 313 kts | 261° |
| 2026-05-05 19:16 | -37.23109 | 175.05584 | 10546 ft | 302 kts | 261° |
| 2026-05-05 19:16 | -37.23496 | 175.03036 | 10411 ft | 292 kts | 261° |
| 2026-05-05 19:16 | -37.23874 | 175.00568 | 10274 ft | 282 kts | 261° |
| 2026-05-05 19:17 | -37.24236 | 174.98181 | 10020 ft | 276 kts | 261° |
| 2026-05-05 19:17 | -37.24592 | 174.95820 | 9668 ft | 283 kts | 261° |
| 2026-05-05 19:17 | -37.24963 | 174.93361 | 9382 ft | 288 kts | 261° |
| 2026-05-05 19:17 | -37.25335 | 174.90897 | 9067 ft | 288 kts | 261° |
| 2026-05-05 19:18 | -37.25705 | 174.88423 | 8692 ft | 286 kts | 261° |
| 2026-05-05 19:18 | -37.26076 | 174.85988 | 8373 ft | 283 kts | 261° |
| 2026-05-05 19:18 | -37.26439 | 174.83572 | 8118 ft | 277 kts | 262° |
| 2026-05-05 19:18 | -37.26473 | 174.81208 | 7915 ft | 268 kts | 283° |
| 2026-05-05 19:19 | -37.25799 | 174.79070 | 7625 ft | 262 kts | 300° |
| 2026-05-05 19:19 | -37.24900 | 174.77085 | 7307 ft | 262 kts | 301° |
| 2026-05-05 19:19 | -37.23991 | 174.75105 | 7006 ft | 261 kts | 301° |
| 2026-05-05 19:19 | -37.23095 | 174.73124 | 6692 ft | 260 kts | 301° |
| 2026-05-05 19:20 | -37.22222 | 174.71176 | 6392 ft | 259 kts | 301° |
| 2026-05-05 19:20 | -37.21342 | 174.69208 | 6088 ft | 257 kts | 301° |
| 2026-05-05 19:20 | -37.20472 | 174.67259 | 5782 ft | 256 kts | 301° |
| 2026-05-05 19:20 | -37.19603 | 174.65318 | 5500 ft | 255 kts | 301° |
| 2026-05-05 19:21 | -37.18737 | 174.63380 | 5203 ft | 253 kts | 301° |
| 2026-05-05 19:21 | -37.17883 | 174.61471 | 4981 ft | 247 kts | 301° |
| 2026-05-05 19:21 | -37.17060 | 174.59631 | 4863 ft | 237 kts | 301° |
| 2026-05-05 19:21 | -37.16204 | 174.57916 | 4673 ft | 228 kts | 311° |
| 2026-05-05 19:22 | -37.14979 | 174.56711 | 4456 ft | 223 kts | 336° |
| 2026-05-05 19:22 | -37.13532 | 174.56022 | 4209 ft | 222 kts | 342° |
| 2026-05-05 19:22 | -37.12084 | 174.55430 | 3966 ft | 221 kts | 343° |
| 2026-05-05 19:22 | -37.10622 | 174.54923 | 3825 ft | 213 kts | 352° |
| 2026-05-05 19:23 | -37.09190 | 174.54992 | 3728 ft | 203 kts | 15° |
| 2026-05-05 19:23 | -37.07971 | 174.55861 | 3644 ft | 206 kts | 44° |
| 2026-05-05 19:23 | -37.07094 | 174.57293 | 3406 ft | 210 kts | 60° |
| 2026-05-05 19:23 | -37.06585 | 174.59019 | 3074 ft | 212 kts | 70° |
| 2026-05-05 19:24 | -37.06300 | 174.60194 | 2859 ft | 213 kts | 68° |
| 2026-05-05 19:24 | -37.05652 | 174.62494 | 2451 ft | 211 kts | 67° |
| 2026-05-05 19:24 | -37.05168 | 174.64225 | 2163 ft | 209 kts | 68° |
| 2026-05-05 19:24 | -37.04859 | 174.65364 | 2001 ft | 199 kts | 68° |
| 2026-05-05 19:25 | -37.04430 | 174.66932 | 1736 ft | 186 kts | 68° |
| 2026-05-05 19:25 | -37.04015 | 174.68422 | 1466 ft | 176 kts | 69° |
| 2026-05-05 19:25 | -37.03507 | 174.70271 | 1166 ft | 161 kts | 69° |
| 2026-05-05 19:25 | -37.03266 | 174.71145 | 1019 ft | 153 kts | 70° |
| 2026-05-05 19:26 | -37.02934 | 174.72349 | 818 ft | 143 kts | 70° |
| 2026-05-05 19:26 | -37.02614 | 174.73511 | 640 ft | 141 kts | 71° |
| 2026-05-05 19:26 | -37.02293 | 174.74679 | 448 ft | 143 kts | 71° |
| 2026-05-05 19:26 | -37.01968 | 174.75862 | 260 ft | 145 kts | 71° |
| 2026-05-05 19:27 | -37.01639 | 174.77055 | 69 ft | 145 kts | 71° |
| 2026-05-05 19:27 | -37.01320 | 174.78194 | 34 ft | 130 kts | 70° |
| 2026-05-05 19:27 | -37.01099 | 174.79017 | 34 ft | 59 kts | 71° |
| 2026-05-05 19:27 | -37.01053 | 174.79186 | 32 ft | 2 kts | 71° |
| 2026-05-05 19:28 | -37.01037 | 174.79247 | 32 ft | 14 kts | 71° |
| 2026-05-05 19:28 | -37.00991 | 174.79417 | 31 ft | 25 kts | 67° |
| 2026-05-05 19:28 | -37.00883 | 174.79616 | 35 ft | 30 kts | 46° |
| 2026-05-05 19:28 | -37.00735 | 174.79710 | 35 ft | 2 kts | 329° |
| 2026-05-05 19:29 | -37.00733 | 174.79703 | 35 ft | 4 kts | 302° |
| 2026-05-05 19:29 | -37.00743 | 174.79618 | 34 ft | 17 kts | 253° |
| 2026-05-05 19:29 | -37.00790 | 174.79429 | 33 ft | 29 kts | 252° |
| 2026-05-05 19:29 | -37.00856 | 174.79178 | 31 ft | 26 kts | 251° |
| 2026-05-05 19:30 | -37.00919 | 174.78945 | 31 ft | 31 kts | 251° |
| 2026-05-05 19:30 | -37.00991 | 174.78685 | 37 ft | 33 kts | 251° |
| 2026-05-05 19:30 | -37.01026 | 174.78418 | 35 ft | 22 kts | 312° |
| 2026-05-05 19:30 | -37.00881 | 174.78370 | 35 ft | 24 kts | 9° |
| 2026-05-05 19:31 | -37.00710 | 174.78377 | 32 ft | 12 kts | 327° |
| 2026-05-05 19:31 | -37.00705 | 174.78361 | 33 ft | 4 kts | 285° |
| 2026-05-05 19:31 | -37.00691 | 174.78306 | 33 ft | 0 kts | 297° |